sensor_id;sensor_type;location;lat;lon;timestamp;P1;durP1;ratioP1;P2;durP2;ratioP2
1957;SDS011;979;51.076;13.748;2023-09-19T00:00:40;18.53;;;17.63;;
1957;SDS011;979;51.076;13.748;2023-09-19T00:03:27;18.73;;;17.77;;
1957;SDS011;979;51.076;13.748;2023-09-19T00:06:13;18.30;;;17.43;;
1957;SDS011;979;51.076;13.748;2023-09-19T00:09:26;18.30;;;17.50;;
1957;SDS011;979;51.076;13.748;2023-09-19T00:12:23;19.40;;;18.50;;
1957;SDS011;979;51.076;13.748;2023-09-19T00:15:40;18.50;;;17.60;;
1957;SDS011;979;51.076;13.748;2023-09-19T00:18:33;19.23;;;18.30;;
1957;SDS011;979;51.076;13.748;2023-09-19T00:21:25;18.70;;;17.53;;
1957;SDS011;979;51.076;13.748;2023-09-19T00:24:57;17.83;;;16.87;;
1957;SDS011;979;51.076;13.748;2023-09-19T00:27:35;17.83;;;16.93;;
1957;SDS011;979;51.076;13.748;2023-09-19T00:30:31;18.43;;;17.50;;
1957;SDS011;979;51.076;13.748;2023-09-19T00:33:37;19.00;;;17.80;;
1957;SDS011;979;51.076;13.748;2023-09-19T00:36:25;18.20;;;17.40;;
1957;SDS011;979;51.076;13.748;2023-09-19T00:39:24;18.30;;;17.50;;
1957;SDS011;979;51.076;13.748;2023-09-19T00:42:44;19.23;;;18.23;;
1957;SDS011;979;51.076;13.748;2023-09-19T00:45:28;19.33;;;18.33;;
1957;SDS011;979;51.076;13.748;2023-09-19T00:48:35;19.70;;;18.53;;
1957;SDS011;979;51.076;13.748;2023-09-19T00:51:31;20.47;;;19.27;;
1957;SDS011;979;51.076;13.748;2023-09-19T00:54:36;19.07;;;18.27;;
1957;SDS011;979;51.076;13.748;2023-09-19T00:57:42;18.87;;;17.87;;
1957;SDS011;979;51.076;13.748;2023-09-19T01:00:56;19.53;;;18.50;;
1957;SDS011;979;51.076;13.748;2023-09-19T01:06:56;19.97;;;18.80;;
1957;SDS011;979;51.076;13.748;2023-09-19T01:09:57;20.77;;;19.67;;
1957;SDS011;979;51.076;13.748;2023-09-19T01:12:54;21.00;;;19.87;;
1957;SDS011;979;51.076;13.748;2023-09-19T01:15:43;20.37;;;19.30;;
1957;SDS011;979;51.076;13.748;2023-09-19T01:18:35;20.43;;;19.33;;
1957;SDS011;979;51.076;13.748;2023-09-19T01:21:57;20.77;;;19.47;;
1957;SDS011;979;51.076;13.748;2023-09-19T01:29:08;20.97;;;19.77;;
1957;SDS011;979;51.076;13.748;2023-09-19T01:35:19;20.27;;;18.97;;
1957;SDS011;979;51.076;13.748;2023-09-19T01:38:13;20.87;;;19.60;;
1957;SDS011;979;51.076;13.748;2023-09-19T01:40:42;22.00;;;20.53;;
1957;SDS011;979;51.076;13.748;2023-09-19T01:43:27;21.20;;;20.00;;
1957;SDS011;979;51.076;13.748;2023-09-19T01:46:24;19.63;;;18.53;;
1957;SDS011;979;51.076;13.748;2023-09-19T01:49:41;19.73;;;18.63;;
1957;SDS011;979;51.076;13.748;2023-09-19T01:52:42;20.77;;;19.57;;
1957;SDS011;979;51.076;13.748;2023-09-19T01:55:56;20.67;;;19.57;;
1957;SDS011;979;51.076;13.748;2023-09-19T01:58:39;21.30;;;19.90;;
1957;SDS011;979;51.076;13.748;2023-09-19T02:02:19;21.33;;;20.03;;
1957;SDS011;979;51.076;13.748;2023-09-19T02:05:31;26.97;;;24.77;;
1957;SDS011;979;51.076;13.748;2023-09-19T02:08:09;26.30;;;24.60;;
1957;SDS011;979;51.076;13.748;2023-09-19T02:10:55;25.47;;;23.47;;
1957;SDS011;979;51.076;13.748;2023-09-19T02:13:48;24.53;;;22.83;;
1957;SDS011;979;51.076;13.748;2023-09-19T02:16:29;23.60;;;22.10;;
1957;SDS011;979;51.076;13.748;2023-09-19T02:19:32;23.27;;;21.50;;
1957;SDS011;979;51.076;13.748;2023-09-19T02:22:28;24.77;;;23.20;;
1957;SDS011;979;51.076;13.748;2023-09-19T02:25:17;24.83;;;22.93;;
1957;SDS011;979;51.076;13.748;2023-09-19T02:28:09;24.37;;;22.70;;
1957;SDS011;979;51.076;13.748;2023-09-19T02:31:02;24.57;;;22.87;;
1957;SDS011;979;51.076;13.748;2023-09-19T02:33:49;19.10;;;18.07;;
1957;SDS011;979;51.076;13.748;2023-09-19T02:36:52;17.63;;;16.93;;
1957;SDS011;979;51.076;13.748;2023-09-19T02:39:39;18.10;;;17.23;;
1957;SDS011;979;51.076;13.748;2023-09-19T02:42:32;17.70;;;16.97;;
1957;SDS011;979;51.076;13.748;2023-09-19T02:45:28;17.37;;;16.67;;
1957;SDS011;979;51.076;13.748;2023-09-19T02:48:20;20.50;;;18.90;;
1957;SDS011;979;51.076;13.748;2023-09-19T02:51:16;18.37;;;17.50;;
1957;SDS011;979;51.076;13.748;2023-09-19T02:54:17;17.10;;;16.50;;
1957;SDS011;979;51.076;13.748;2023-09-19T03:00:28;16.63;;;16.03;;
1957;SDS011;979;51.076;13.748;2023-09-19T03:03:35;17.40;;;16.80;;
1957;SDS011;979;51.076;13.748;2023-09-19T03:06:23;16.80;;;16.20;;
1957;SDS011;979;51.076;13.748;2023-09-19T03:09:12;17.40;;;16.60;;
1957;SDS011;979;51.076;13.748;2023-09-19T03:11:56;16.70;;;16.10;;
1957;SDS011;979;51.076;13.748;2023-09-19T03:14:55;16.40;;;15.87;;
1957;SDS011;979;51.076;13.748;2023-09-19T03:17:56;17.13;;;16.40;;
1957;SDS011;979;51.076;13.748;2023-09-19T03:20:54;16.37;;;15.57;;
1957;SDS011;979;51.076;13.748;2023-09-19T03:23:33;17.10;;;16.40;;
1957;SDS011;979;51.076;13.748;2023-09-19T03:26:28;16.97;;;16.27;;
1957;SDS011;979;51.076;13.748;2023-09-19T03:29:14;17.37;;;16.67;;
1957;SDS011;979;51.076;13.748;2023-09-19T03:32:08;16.83;;;16.33;;
1957;SDS011;979;51.076;13.748;2023-09-19T03:35:01;16.47;;;15.87;;
1957;SDS011;979;51.076;13.748;2023-09-19T03:37:34;17.20;;;16.40;;
1957;SDS011;979;51.076;13.748;2023-09-19T03:40:16;16.77;;;15.93;;
1957;SDS011;979;51.076;13.748;2023-09-19T03:43:02;17.10;;;16.47;;
1957;SDS011;979;51.076;13.748;2023-09-19T03:45:48;17.53;;;16.63;;
1957;SDS011;979;51.076;13.748;2023-09-19T03:48:48;17.70;;;16.90;;
1957;SDS011;979;51.076;13.748;2023-09-19T03:51:22;16.93;;;16.10;;
1957;SDS011;979;51.076;13.748;2023-09-19T03:54:28;17.20;;;16.40;;
1957;SDS011;979;51.076;13.748;2023-09-19T03:57:15;16.27;;;15.60;;
1957;SDS011;979;51.076;13.748;2023-09-19T04:00:18;16.20;;;15.70;;
1957;SDS011;979;51.076;13.748;2023-09-19T04:03:13;15.10;;;14.60;;
1957;SDS011;979;51.076;13.748;2023-09-19T04:06:01;15.80;;;15.10;;
1957;SDS011;979;51.076;13.748;2023-09-19T04:09:26;16.07;;;15.27;;
1957;SDS011;979;51.076;13.748;2023-09-19T04:15:40;15.13;;;14.53;;
1957;SDS011;979;51.076;13.748;2023-09-19T04:18:34;15.63;;;15.10;;
1957;SDS011;979;51.076;13.748;2023-09-19T04:21:21;16.30;;;15.80;;
1957;SDS011;979;51.076;13.748;2023-09-19T04:24:13;15.90;;;15.30;;
1957;SDS011;979;51.076;13.748;2023-09-19T04:27:07;15.70;;;15.20;;
1957;SDS011;979;51.076;13.748;2023-09-19T04:30:01;16.00;;;15.50;;
1957;SDS011;979;51.076;13.748;2023-09-19T04:32:49;14.97;;;14.57;;
1957;SDS011;979;51.076;13.748;2023-09-19T04:35:59;15.53;;;14.40;;
1957;SDS011;979;51.076;13.748;2023-09-19T04:39:38;16.60;;;15.90;;
1957;SDS011;979;51.076;13.748;2023-09-19T04:42:32;15.67;;;14.97;;
1957;SDS011;979;51.076;13.748;2023-09-19T04:45:20;15.87;;;15.27;;
1957;SDS011;979;51.076;13.748;2023-09-19T04:48:23;16.17;;;15.47;;
1957;SDS011;979;51.076;13.748;2023-09-19T04:51:17;16.03;;;15.43;;
1957;SDS011;979;51.076;13.748;2023-09-19T04:54:15;16.97;;;16.33;;
1957;SDS011;979;51.076;13.748;2023-09-19T04:57:31;16.43;;;15.63;;
1957;SDS011;979;51.076;13.748;2023-09-19T05:00:27;16.30;;;15.73;;
1957;SDS011;979;51.076;13.748;2023-09-19T05:03:35;16.60;;;16.10;;
1957;SDS011;979;51.076;13.748;2023-09-19T05:06:37;16.93;;;16.33;;
1957;SDS011;979;51.076;13.748;2023-09-19T05:09:25;17.33;;;16.63;;
1957;SDS011;979;51.076;13.748;2023-09-19T05:12:22;16.80;;;16.30;;
1957;SDS011;979;51.076;13.748;2023-09-19T05:15:06;17.50;;;16.93;;
1957;SDS011;979;51.076;13.748;2023-09-19T05:18:03;17.40;;;16.80;;
1957;SDS011;979;51.076;13.748;2023-09-19T05:21:04;16.80;;;16.20;;
1957;SDS011;979;51.076;13.748;2023-09-19T05:24:02;17.37;;;16.70;;
1957;SDS011;979;51.076;13.748;2023-09-19T05:26:45;15.93;;;15.43;;
1957;SDS011;979;51.076;13.748;2023-09-19T05:29:36;16.80;;;16.20;;
1957;SDS011;979;51.076;13.748;2023-09-19T05:32:25;16.60;;;16.00;;
1957;SDS011;979;51.076;13.748;2023-09-19T05:34:55;16.77;;;15.90;;
1957;SDS011;979;51.076;13.748;2023-09-19T05:37:24;16.33;;;15.70;;
1957;SDS011;979;51.076;13.748;2023-09-19T05:40:16;16.60;;;15.77;;
1957;SDS011;979;51.076;13.748;2023-09-19T05:42:51;16.70;;;16.00;;
1957;SDS011;979;51.076;13.748;2023-09-19T05:45:38;15.63;;;15.10;;
1957;SDS011;979;51.076;13.748;2023-09-19T05:48:25;16.33;;;15.83;;
1957;SDS011;979;51.076;13.748;2023-09-19T05:51:06;17.00;;;16.30;;
1957;SDS011;979;51.076;13.748;2023-09-19T05:53:54;16.30;;;15.70;;
1957;SDS011;979;51.076;13.748;2023-09-19T05:56:45;16.37;;;15.73;;
1957;SDS011;979;51.076;13.748;2023-09-19T05:59:39;16.30;;;15.70;;
1957;SDS011;979;51.076;13.748;2023-09-19T06:06:00;16.33;;;15.63;;
1957;SDS011;979;51.076;13.748;2023-09-19T06:08:55;17.10;;;16.40;;
1957;SDS011;979;51.076;13.748;2023-09-19T06:11:48;16.97;;;16.37;;
1957;SDS011;979;51.076;13.748;2023-09-19T06:14:36;16.63;;;16.13;;
1957;SDS011;979;51.076;13.748;2023-09-19T06:17:30;17.20;;;16.50;;
1957;SDS011;979;51.076;13.748;2023-09-19T06:20:20;13.63;;;13.33;;
1957;SDS011;979;51.076;13.748;2023-09-19T06:26:51;16.73;;;16.23;;
1957;SDS011;979;51.076;13.748;2023-09-19T06:29:45;17.47;;;16.87;;
1957;SDS011;979;51.076;13.748;2023-09-19T06:32:37;17.00;;;16.50;;
1957;SDS011;979;51.076;13.748;2023-09-19T06:35:22;18.23;;;17.43;;
1957;SDS011;979;51.076;13.748;2023-09-19T06:38:16;17.57;;;16.87;;
1957;SDS011;979;51.076;13.748;2023-09-19T06:41:02;17.70;;;17.10;;
1957;SDS011;979;51.076;13.748;2023-09-19T06:44:02;17.23;;;16.63;;
1957;SDS011;979;51.076;13.748;2023-09-19T06:46:56;18.03;;;17.40;;
1957;SDS011;979;51.076;13.748;2023-09-19T06:52:54;18.20;;;17.60;;
1957;SDS011;979;51.076;13.748;2023-09-19T06:56:05;16.50;;;16.00;;
1957;SDS011;979;51.076;13.748;2023-09-19T07:01:59;17.07;;;16.57;;
1957;SDS011;979;51.076;13.748;2023-09-19T07:04:43;17.40;;;16.90;;
1957;SDS011;979;51.076;13.748;2023-09-19T07:07:41;15.93;;;15.33;;
1957;SDS011;979;51.076;13.748;2023-09-19T07:10:32;16.70;;;16.20;;
1957;SDS011;979;51.076;13.748;2023-09-19T07:13:19;17.07;;;16.37;;
1957;SDS011;979;51.076;13.748;2023-09-19T07:16:10;16.10;;;15.60;;
1957;SDS011;979;51.076;13.748;2023-09-19T07:19:13;16.73;;;16.07;;
1957;SDS011;979;51.076;13.748;2023-09-19T07:22:10;16.83;;;16.23;;
1957;SDS011;979;51.076;13.748;2023-09-19T07:24:52;17.70;;;17.00;;
1957;SDS011;979;51.076;13.748;2023-09-19T07:27:30;17.17;;;16.57;;
1957;SDS011;979;51.076;13.748;2023-09-19T07:33:00;16.90;;;16.30;;
1957;SDS011;979;51.076;13.748;2023-09-19T07:36:04;16.60;;;16.00;;
1957;SDS011;979;51.076;13.748;2023-09-19T07:41:52;16.70;;;16.13;;
1957;SDS011;979;51.076;13.748;2023-09-19T07:44:39;17.40;;;16.80;;
1957;SDS011;979;51.076;13.748;2023-09-19T07:47:38;16.70;;;16.00;;
1957;SDS011;979;51.076;13.748;2023-09-19T07:50:38;16.50;;;15.90;;
1957;SDS011;979;51.076;13.748;2023-09-19T07:53:49;17.83;;;17.23;;
1957;SDS011;979;51.076;13.748;2023-09-19T07:56:49;17.47;;;16.87;;
1957;SDS011;979;51.076;13.748;2023-09-19T07:59:37;17.90;;;17.30;;
1957;SDS011;979;51.076;13.748;2023-09-19T08:09:25;16.23;;;15.70;;
1957;SDS011;979;51.076;13.748;2023-09-19T08:12:27;16.93;;;16.10;;
1957;SDS011;979;51.076;13.748;2023-09-19T08:15:05;16.43;;;15.90;;
1957;SDS011;979;51.076;13.748;2023-09-19T08:18:14;16.77;;;16.17;;
1957;SDS011;979;51.076;13.748;2023-09-19T08:21:01;16.37;;;15.67;;
1957;SDS011;979;51.076;13.748;2023-09-19T08:23:39;17.80;;;16.90;;
1957;SDS011;979;51.076;13.748;2023-09-19T08:26:31;17.50;;;16.80;;
1957;SDS011;979;51.076;13.748;2023-09-19T08:29:46;17.53;;;16.90;;
1957;SDS011;979;51.076;13.748;2023-09-19T08:33:03;16.83;;;16.13;;
1957;SDS011;979;51.076;13.748;2023-09-19T08:36:00;17.20;;;16.60;;
1957;SDS011;979;51.076;13.748;2023-09-19T08:38:54;17.03;;;16.23;;
1957;SDS011;979;51.076;13.748;2023-09-19T08:42:09;18.23;;;17.53;;
1957;SDS011;979;51.076;13.748;2023-09-19T08:45:04;17.43;;;16.83;;
1957;SDS011;979;51.076;13.748;2023-09-19T08:48:24;17.47;;;16.87;;
1957;SDS011;979;51.076;13.748;2023-09-19T08:51:25;17.80;;;16.80;;
1957;SDS011;979;51.076;13.748;2023-09-19T08:57:27;17.20;;;16.60;;
1957;SDS011;979;51.076;13.748;2023-09-19T09:00:27;17.37;;;16.77;;
1957;SDS011;979;51.076;13.748;2023-09-19T09:03:47;17.17;;;16.43;;
1957;SDS011;979;51.076;13.748;2023-09-19T09:06:38;17.47;;;16.83;;
1957;SDS011;979;51.076;13.748;2023-09-19T09:09:44;16.83;;;15.97;;
1957;SDS011;979;51.076;13.748;2023-09-19T09:12:50;18.00;;;17.30;;
1957;SDS011;979;51.076;13.748;2023-09-19T09:15:56;17.33;;;16.63;;
1957;SDS011;979;51.076;13.748;2023-09-19T09:18:40;18.20;;;17.40;;
1957;SDS011;979;51.076;13.748;2023-09-19T09:21:26;17.67;;;17.00;;
1957;SDS011;979;51.076;13.748;2023-09-19T09:24:37;20.33;;;19.30;;
1957;SDS011;979;51.076;13.748;2023-09-19T09:28:10;17.33;;;16.67;;
1957;SDS011;979;51.076;13.748;2023-09-19T09:35:37;17.60;;;16.90;;
1957;SDS011;979;51.076;13.748;2023-09-19T09:38:47;17.27;;;16.63;;
1957;SDS011;979;51.076;13.748;2023-09-19T09:45:23;16.83;;;16.23;;
1957;SDS011;979;51.076;13.748;2023-09-19T09:48:29;15.57;;;15.07;;
1957;SDS011;979;51.076;13.748;2023-09-19T09:51:46;17.10;;;16.50;;
1957;SDS011;979;51.076;13.748;2023-09-19T09:55:00;16.93;;;16.33;;
1957;SDS011;979;51.076;13.748;2023-09-19T09:58:26;16.97;;;16.37;;
1957;SDS011;979;51.076;13.748;2023-09-19T10:01:46;17.53;;;16.93;;
1957;SDS011;979;51.076;13.748;2023-09-19T10:05:03;17.50;;;16.90;;
1957;SDS011;979;51.076;13.748;2023-09-19T10:08:12;17.20;;;16.70;;
1957;SDS011;979;51.076;13.748;2023-09-19T10:11:15;16.53;;;16.03;;
1957;SDS011;979;51.076;13.748;2023-09-19T10:13:47;18.17;;;17.27;;
1957;SDS011;979;51.076;13.748;2023-09-19T10:16:34;16.57;;;16.07;;
1957;SDS011;979;51.076;13.748;2023-09-19T10:19:29;16.60;;;16.00;;
1957;SDS011;979;51.076;13.748;2023-09-19T10:22:26;17.40;;;16.70;;
1957;SDS011;979;51.076;13.748;2023-09-19T10:25:12;17.20;;;16.60;;
1957;SDS011;979;51.076;13.748;2023-09-19T10:28:05;17.10;;;16.40;;
1957;SDS011;979;51.076;13.748;2023-09-19T10:30:57;16.73;;;16.03;;
1957;SDS011;979;51.076;13.748;2023-09-19T10:33:54;17.37;;;16.70;;
1957;SDS011;979;51.076;13.748;2023-09-19T10:36:55;17.10;;;16.60;;
1957;SDS011;979;51.076;13.748;2023-09-19T10:39:45;17.47;;;16.67;;
1957;SDS011;979;51.076;13.748;2023-09-19T10:42:26;17.23;;;16.63;;
1957;SDS011;979;51.076;13.748;2023-09-19T10:45:04;17.70;;;17.00;;
1957;SDS011;979;51.076;13.748;2023-09-19T10:52:29;16.80;;;16.03;;
1957;SDS011;979;51.076;13.748;2023-09-19T10:55:32;16.50;;;16.00;;
1957;SDS011;979;51.076;13.748;2023-09-19T10:58:23;16.73;;;16.20;;
1957;SDS011;979;51.076;13.748;2023-09-19T11:01:42;15.43;;;14.93;;
1957;SDS011;979;51.076;13.748;2023-09-19T11:04:36;16.80;;;16.10;;
1957;SDS011;979;51.076;13.748;2023-09-19T11:07:23;17.30;;;16.70;;
1957;SDS011;979;51.076;13.748;2023-09-19T11:10:09;16.80;;;16.17;;
1957;SDS011;979;51.076;13.748;2023-09-19T11:13:25;17.50;;;16.80;;
1957;SDS011;979;51.076;13.748;2023-09-19T11:16:26;16.90;;;16.30;;
1957;SDS011;979;51.076;13.748;2023-09-19T11:19:35;16.97;;;16.37;;
1957;SDS011;979;51.076;13.748;2023-09-19T11:23:23;17.93;;;17.07;;
1957;SDS011;979;51.076;13.748;2023-09-19T11:26:03;17.00;;;16.43;;
1957;SDS011;979;51.076;13.748;2023-09-19T11:28:45;17.80;;;17.10;;
1957;SDS011;979;51.076;13.748;2023-09-19T11:44:43;18.93;;;18.13;;
1957;SDS011;979;51.076;13.748;2023-09-19T11:47:22;17.03;;;16.53;;
1957;SDS011;979;51.076;13.748;2023-09-19T11:50:14;18.50;;;17.80;;
1957;SDS011;979;51.076;13.748;2023-09-19T11:52:56;18.43;;;17.83;;
1957;SDS011;979;51.076;13.748;2023-09-19T11:55:45;17.90;;;17.30;;
1957;SDS011;979;51.076;13.748;2023-09-19T11:58:55;18.13;;;17.33;;
1957;SDS011;979;51.076;13.748;2023-09-19T12:01:51;19.17;;;18.47;;
1957;SDS011;979;51.076;13.748;2023-09-19T12:04:40;18.03;;;17.30;;
1957;SDS011;979;51.076;13.748;2023-09-19T12:07:10;17.27;;;16.37;;
1957;SDS011;979;51.076;13.748;2023-09-19T12:09:43;17.10;;;16.40;;
1957;SDS011;979;51.076;13.748;2023-09-19T12:12:36;17.40;;;16.70;;
1957;SDS011;979;51.076;13.748;2023-09-19T12:15:37;17.33;;;16.70;;
1957;SDS011;979;51.076;13.748;2023-09-19T12:18:32;16.80;;;16.30;;
1957;SDS011;979;51.076;13.748;2023-09-19T12:21:25;18.00;;;17.30;;
1957;SDS011;979;51.076;13.748;2023-09-19T12:24:11;18.10;;;17.40;;
1957;SDS011;979;51.076;13.748;2023-09-19T12:27:04;18.90;;;18.17;;
1957;SDS011;979;51.076;13.748;2023-09-19T12:29:58;16.97;;;16.37;;
1957;SDS011;979;51.076;13.748;2023-09-19T12:33:04;17.60;;;17.07;;
1957;SDS011;979;51.076;13.748;2023-09-19T12:36:20;18.03;;;17.37;;
1957;SDS011;979;51.076;13.748;2023-09-19T12:39:09;18.03;;;17.43;;
1957;SDS011;979;51.076;13.748;2023-09-19T12:42:11;18.83;;;18.07;;
1957;SDS011;979;51.076;13.748;2023-09-19T12:45:05;17.37;;;16.80;;
1957;SDS011;979;51.076;13.748;2023-09-19T12:48:25;18.00;;;17.30;;
1957;SDS011;979;51.076;13.748;2023-09-19T12:51:59;18.03;;;17.20;;
1957;SDS011;979;51.076;13.748;2023-09-19T12:54:51;17.17;;;16.57;;
1957;SDS011;979;51.076;13.748;2023-09-19T13:00:53;17.30;;;16.50;;
1957;SDS011;979;51.076;13.748;2023-09-19T13:04:12;18.17;;;17.17;;
1957;SDS011;979;51.076;13.748;2023-09-19T13:11:35;17.87;;;17.27;;
1957;SDS011;979;51.076;13.748;2023-09-19T13:17:24;18.07;;;17.00;;
1957;SDS011;979;51.076;13.748;2023-09-19T13:18:27;17.40;;;16.70;;
1957;SDS011;979;51.076;13.748;2023-09-19T13:24:21;17.70;;;17.03;;
1957;SDS011;979;51.076;13.748;2023-09-19T13:34:16;17.50;;;16.90;;
1957;SDS011;979;51.076;13.748;2023-09-19T13:37:42;17.17;;;16.67;;
1957;SDS011;979;51.076;13.748;2023-09-19T13:40:37;17.17;;;16.53;;
1957;SDS011;979;51.076;13.748;2023-09-19T13:48:01;16.87;;;16.37;;
1957;SDS011;979;51.076;13.748;2023-09-19T13:50:57;16.27;;;15.77;;
1957;SDS011;979;51.076;13.748;2023-09-19T13:53:59;17.77;;;17.07;;
1957;SDS011;979;51.076;13.748;2023-09-19T13:56:57;16.57;;;16.07;;
1957;SDS011;979;51.076;13.748;2023-09-19T13:59:52;17.20;;;16.57;;
1957;SDS011;979;51.076;13.748;2023-09-19T14:02:21;17.40;;;16.70;;
1957;SDS011;979;51.076;13.748;2023-09-19T14:05:06;17.20;;;16.60;;
1957;SDS011;979;51.076;13.748;2023-09-19T14:07:49;16.80;;;16.20;;
1957;SDS011;979;51.076;13.748;2023-09-19T14:10:27;16.93;;;16.33;;
1957;SDS011;979;51.076;13.748;2023-09-19T14:14:06;16.90;;;16.40;;
1957;SDS011;979;51.076;13.748;2023-09-19T14:17:03;17.17;;;16.50;;
1957;SDS011;979;51.076;13.748;2023-09-19T14:19:59;16.60;;;15.90;;
1957;SDS011;979;51.076;13.748;2023-09-19T14:23:10;17.00;;;16.40;;
1957;SDS011;979;51.076;13.748;2023-09-19T14:26:02;17.73;;;16.63;;
1957;SDS011;979;51.076;13.748;2023-09-19T14:28:51;16.40;;;15.80;;
1957;SDS011;979;51.076;13.748;2023-09-19T14:31:50;16.83;;;16.20;;
1957;SDS011;979;51.076;13.748;2023-09-19T14:34:36;17.37;;;16.67;;
1957;SDS011;979;51.076;13.748;2023-09-19T14:37:55;16.50;;;16.00;;
1957;SDS011;979;51.076;13.748;2023-09-19T14:40:40;16.20;;;15.70;;
1957;SDS011;979;51.076;13.748;2023-09-19T14:45:13;16.33;;;15.83;;
1957;SDS011;979;51.076;13.748;2023-09-19T14:51:01;17.60;;;16.90;;
1957;SDS011;979;51.076;13.748;2023-09-19T14:54:07;17.17;;;16.47;;
1957;SDS011;979;51.076;13.748;2023-09-19T14:58:03;17.00;;;16.40;;
1957;SDS011;979;51.076;13.748;2023-09-19T15:02:05;17.10;;;16.30;;
1957;SDS011;979;51.076;13.748;2023-09-19T15:05:10;17.07;;;16.10;;
1957;SDS011;979;51.076;13.748;2023-09-19T15:08:19;15.67;;;15.27;;
1957;SDS011;979;51.076;13.748;2023-09-19T15:18:15;15.77;;;15.27;;
1957;SDS011;979;51.076;13.748;2023-09-19T15:20:59;16.70;;;16.10;;
1957;SDS011;979;51.076;13.748;2023-09-19T15:23:55;16.50;;;15.90;;
1957;SDS011;979;51.076;13.748;2023-09-19T15:58:17;16.93;;;16.33;;
1957;SDS011;979;51.076;13.748;2023-09-19T16:01:05;18.23;;;17.53;;
1957;SDS011;979;51.076;13.748;2023-09-19T16:03:43;17.47;;;16.67;;
1957;SDS011;979;51.076;13.748;2023-09-19T16:06:40;18.03;;;17.23;;
1957;SDS011;979;51.076;13.748;2023-09-19T16:10:35;17.70;;;16.90;;
1957;SDS011;979;51.076;13.748;2023-09-19T16:17:42;17.40;;;16.70;;
1957;SDS011;979;51.076;13.748;2023-09-19T16:24:44;15.57;;;14.97;;
1957;SDS011;979;51.076;13.748;2023-09-19T16:27:14;15.63;;;15.03;;
1957;SDS011;979;51.076;13.748;2023-09-19T16:29:52;15.40;;;14.90;;
1957;SDS011;979;51.076;13.748;2023-09-19T16:32:23;15.77;;;14.63;;
1957;SDS011;979;51.076;13.748;2023-09-19T16:34:54;15.73;;;15.13;;
1957;SDS011;979;51.076;13.748;2023-09-19T16:37:23;15.60;;;15.00;;
1957;SDS011;979;51.076;13.748;2023-09-19T16:39:54;16.50;;;15.97;;
1957;SDS011;979;51.076;13.748;2023-09-19T16:42:34;16.27;;;15.60;;
1957;SDS011;979;51.076;13.748;2023-09-19T16:45:49;16.03;;;15.43;;
1957;SDS011;979;51.076;13.748;2023-09-19T16:49:00;16.80;;;16.20;;
1957;SDS011;979;51.076;13.748;2023-09-19T16:51:34;19.40;;;18.50;;
1957;SDS011;979;51.076;13.748;2023-09-19T16:54:04;18.10;;;17.30;;
1957;SDS011;979;51.076;13.748;2023-09-19T16:56:33;15.03;;;14.53;;
1957;SDS011;979;51.076;13.748;2023-09-19T16:59:07;16.10;;;15.50;;
1957;SDS011;979;51.076;13.748;2023-09-19T17:01:42;17.37;;;16.40;;
1957;SDS011;979;51.076;13.748;2023-09-19T17:04:26;15.73;;;15.13;;
1957;SDS011;979;51.076;13.748;2023-09-19T17:06:58;16.43;;;15.73;;
1957;SDS011;979;51.076;13.748;2023-09-19T17:09:27;16.47;;;15.77;;
1957;SDS011;979;51.076;13.748;2023-09-19T17:11:55;17.80;;;16.67;;
1957;SDS011;979;51.076;13.748;2023-09-19T17:14:27;15.60;;;15.00;;
1957;SDS011;979;51.076;13.748;2023-09-19T17:16:59;17.07;;;16.47;;
1957;SDS011;979;51.076;13.748;2023-09-19T17:19:29;17.00;;;16.30;;
1957;SDS011;979;51.076;13.748;2023-09-19T17:21:59;16.57;;;15.97;;
1957;SDS011;979;51.076;13.748;2023-09-19T17:24:30;16.80;;;16.10;;
1957;SDS011;979;51.076;13.748;2023-09-19T17:26:59;17.67;;;16.77;;
1957;SDS011;979;51.076;13.748;2023-09-19T17:29:44;18.03;;;17.23;;
1957;SDS011;979;51.076;13.748;2023-09-19T17:32:55;16.83;;;16.23;;
1957;SDS011;979;51.076;13.748;2023-09-19T17:36:06;18.53;;;17.53;;
1957;SDS011;979;51.076;13.748;2023-09-19T17:38:49;16.87;;;16.10;;
1957;SDS011;979;51.076;13.748;2023-09-19T17:41:32;16.70;;;16.00;;
1957;SDS011;979;51.076;13.748;2023-09-19T17:44:32;17.50;;;16.70;;
1957;SDS011;979;51.076;13.748;2023-09-19T17:47:45;16.40;;;15.50;;
1957;SDS011;979;51.076;13.748;2023-09-19T17:50:41;16.70;;;16.03;;
1957;SDS011;979;51.076;13.748;2023-09-19T17:53:32;15.90;;;15.30;;
1957;SDS011;979;51.076;13.748;2023-09-19T17:56:11;16.43;;;15.73;;
1957;SDS011;979;51.076;13.748;2023-09-19T17:58:51;16.50;;;15.50;;
1957;SDS011;979;51.076;13.748;2023-09-19T18:01:27;17.43;;;16.33;;
1957;SDS011;979;51.076;13.748;2023-09-19T18:10:48;17.97;;;16.60;;
1957;SDS011;979;51.076;13.748;2023-09-19T18:13:36;17.10;;;16.20;;
1957;SDS011;979;51.076;13.748;2023-09-19T18:16:18;15.73;;;15.00;;
1957;SDS011;979;51.076;13.748;2023-09-19T18:18:52;16.80;;;16.07;;
1957;SDS011;979;51.076;13.748;2023-09-19T18:21:50;15.97;;;15.27;;
1957;SDS011;979;51.076;13.748;2023-09-19T18:24:37;16.33;;;15.63;;
1957;SDS011;979;51.076;13.748;2023-09-19T18:27:13;16.67;;;15.87;;
1957;SDS011;979;51.076;13.748;2023-09-19T18:29:52;15.40;;;14.70;;
1957;SDS011;979;51.076;13.748;2023-09-19T18:32:31;17.07;;;15.97;;
1957;SDS011;979;51.076;13.748;2023-09-19T18:35:32;16.90;;;15.80;;
1957;SDS011;979;51.076;13.748;2023-09-19T18:42:03;17.40;;;16.37;;
1957;SDS011;979;51.076;13.748;2023-09-19T18:45:02;17.40;;;16.50;;
1957;SDS011;979;51.076;13.748;2023-09-19T18:48:21;16.77;;;15.77;;
1957;SDS011;979;51.076;13.748;2023-09-19T19:43:09;17.27;;;16.47;;
1957;SDS011;979;51.076;13.748;2023-09-19T19:46:29;17.67;;;16.80;;
1957;SDS011;979;51.076;13.748;2023-09-19T19:49:17;17.60;;;16.80;;
1957;SDS011;979;51.076;13.748;2023-09-19T19:52:43;18.00;;;17.20;;
1957;SDS011;979;51.076;13.748;2023-09-19T19:58:53;18.00;;;17.07;;
1957;SDS011;979;51.076;13.748;2023-09-19T20:02:30;18.60;;;17.70;;
1957;SDS011;979;51.076;13.748;2023-09-19T20:05:29;16.80;;;15.90;;
1957;SDS011;979;51.076;13.748;2023-09-19T20:08:57;16.43;;;15.43;;
1957;SDS011;979;51.076;13.748;2023-09-19T20:12:34;17.03;;;16.00;;
1957;SDS011;979;51.076;13.748;2023-09-19T20:15:39;30.67;;;16.60;;
1957;SDS011;979;51.076;13.748;2023-09-19T20:18:51;15.50;;;14.67;;
1957;SDS011;979;51.076;13.748;2023-09-19T20:21:41;17.00;;;16.20;;
1957;SDS011;979;51.076;13.748;2023-09-19T20:24:42;17.70;;;16.70;;
1957;SDS011;979;51.076;13.748;2023-09-19T20:27:49;18.07;;;17.20;;
1957;SDS011;979;51.076;13.748;2023-09-19T20:31:07;18.97;;;17.97;;
1957;SDS011;979;51.076;13.748;2023-09-19T20:34:10;19.20;;;18.00;;
1957;SDS011;979;51.076;13.748;2023-09-19T20:55:29;20.13;;;19.13;;
1957;SDS011;979;51.076;13.748;2023-09-19T20:58:41;19.80;;;18.70;;
1957;SDS011;979;51.076;13.748;2023-09-19T21:01:40;21.10;;;19.93;;
1957;SDS011;979;51.076;13.748;2023-09-19T21:04:59;22.80;;;21.60;;
1957;SDS011;979;51.076;13.748;2023-09-19T21:07:36;22.63;;;21.33;;
1957;SDS011;979;51.076;13.748;2023-09-19T21:10:07;21.97;;;20.87;;
1957;SDS011;979;51.076;13.748;2023-09-19T21:13:04;21.80;;;20.47;;
1957;SDS011;979;51.076;13.748;2023-09-19T21:16:09;19.47;;;18.47;;
1957;SDS011;979;51.076;13.748;2023-09-19T21:19:27;21.70;;;20.50;;
1957;SDS011;979;51.076;13.748;2023-09-19T21:22:16;22.60;;;21.30;;
1957;SDS011;979;51.076;13.748;2023-09-19T21:25:00;21.33;;;20.00;;
1957;SDS011;979;51.076;13.748;2023-09-19T21:27:54;21.13;;;19.80;;